Rosenberg's Hourly Summary for Saturday, April 15, 2017
Hour Temp
(f)
RH
(%)
Solar Rad.
(MJ/m2)
Rainfall
(in)
Wind
(mph)
4/15/2017 12:00 AM 61 92 0 0 0.57
4/15/2017 1:00 AM 60 93 0 0 0.57
4/15/2017 2:00 AM 59 94 0 0 0.57
4/15/2017 3:00 AM 58 94 0 0 0.57
4/15/2017 4:00 AM 58 94 0 0 0.57
4/15/2017 5:00 AM 57 95 0.01 0 0.57
4/15/2017 6:00 AM 58 95 0.19 0 0.57
4/15/2017 7:00 AM 60 95 0.9 0 2.7
4/15/2017 8:00 AM 64 88 1.47 0 4.05
4/15/2017 9:00 AM 71 71 2.12 0 5.09
4/15/2017 10:00 AM 74 62 2.6 0 5.7
4/15/2017 11:00 AM 76 56 2.4 0 5.69
4/15/2017 12:00 PM 77 54 2.11 0 6.22
4/15/2017 1:00 PM 78 54 1.89 0 6.52
4/15/2017 2:00 PM 78 54 1.52 0 6.4
4/15/2017 3:00 PM 78 53 2.1 0 6.87
4/15/2017 4:00 PM 78 46 1.48 0 7.04
4/15/2017 5:00 PM 77 50 0.66 0 6.8
4/15/2017 6:00 PM 75 61 0.12 0 5.03
4/15/2017 7:00 PM 72 71 0 0 4.02
4/15/2017 8:00 PM 69 80 0 0 1.81
4/15/2017 9:00 PM 67 87 0 0 0.71
4/15/2017 10:00 PM 67 90 0 0 3.95
4/15/2017 11:00 PM 66 91 0 0 1.27
Data Summary 68 75 19.57 0.00 3.49